FNLU/LAD METAR and TAF weather

Enter ICAO airport designator
Station Type Date Time Source
FNLU METAR 2020/11/25 23:00 UTC NOAA

FNLU 252300Z 19007KT 9999 FEW020 SCT022 26/22 Q1010


Station Type Date Time Source
FNLU Decoded METAR 2020/11/25 23:00 UTC NOAA

Luanda, Angola (FNLU) 08-51S 013-14E 70M
Nov 25, 2020 - 06:00 PM EST / 2020.11.25 2300 UTC
Wind: from the S (190 degrees) at 8 MPH (7 KT):0
Visibility: greater than 7 mile(s):0
Sky conditions: partly cloudy
Temperature: 78 F (26 C)
Dew Point: 71 F (22 C)
Relative Humidity: 78%
Pressure (altimeter): 29.83 in. Hg (1010 hPa)
ob: FNLU 252300Z 19007KT 9999 FEW020 SCT022 26/22 Q1010
cycle: 23

Station Type Date Time Source
FNLU TAF 2020/11/25 12:51 UTC NOAA

TAF TAF FNLU 251050Z 2512/2618 25009KT 9999 FEW020 BKN030
TEMPO 2515/2518 SCT020
BECMG 2522/2524 8000 BKN020 PROB30
TEMPO 2602/2607 6000 DZ

Example: see airport list